sensor_id;sensor_type;location;lat;lon;timestamp;temperature;humidity
66568;DHT22;53422;49.296;6.900;2022-12-31T00:00:37;10.90;99.90
66568;DHT22;53422;49.296;6.900;2022-12-31T00:03:04;10.80;99.90
66568;DHT22;53422;49.296;6.900;2022-12-31T00:05:31;10.80;99.90
66568;DHT22;53422;49.296;6.900;2022-12-31T00:07:57;10.90;99.90
66568;DHT22;53422;49.296;6.900;2022-12-31T00:10:24;10.90;99.90
66568;DHT22;53422;49.296;6.900;2022-12-31T00:12:50;10.80;99.90
66568;DHT22;53422;49.296;6.900;2022-12-31T00:15:16;10.80;99.90
66568;DHT22;53422;49.296;6.900;2022-12-31T00:17:42;10.90;99.90
66568;DHT22;53422;49.296;6.900;2022-12-31T00:20:08;10.90;99.90
66568;DHT22;53422;49.296;6.900;2022-12-31T00:22:34;10.90;99.90
66568;DHT22;53422;49.296;6.900;2022-12-31T00:24:59;10.90;99.90
66568;DHT22;53422;49.296;6.900;2022-12-31T00:27:25;10.90;99.90
66568;DHT22;53422;49.296;6.900;2022-12-31T00:29:50;10.90;99.90
66568;DHT22;53422;49.296;6.900;2022-12-31T00:32:16;11.00;99.90
66568;DHT22;53422;49.296;6.900;2022-12-31T00:34:42;10.90;99.90
66568;DHT22;53422;49.296;6.900;2022-12-31T00:37:07;11.00;99.90
66568;DHT22;53422;49.296;6.900;2022-12-31T00:39:33;11.00;99.90
66568;DHT22;53422;49.296;6.900;2022-12-31T00:41:58;11.10;99.90
66568;DHT22;53422;49.296;6.900;2022-12-31T00:44:24;11.10;99.90
66568;DHT22;53422;49.296;6.900;2022-12-31T00:46:50;11.00;99.90
66568;DHT22;53422;49.296;6.900;2022-12-31T00:49:15;11.00;99.90
66568;DHT22;53422;49.296;6.900;2022-12-31T00:51:41;11.10;99.90
66568;DHT22;53422;49.296;6.900;2022-12-31T00:54:07;11.10;99.90
66568;DHT22;53422;49.296;6.900;2022-12-31T00:56:34;11.10;99.90
66568;DHT22;53422;49.296;6.900;2022-12-31T00:59:00;11.10;99.90
66568;DHT22;53422;49.296;6.900;2022-12-31T01:01:29;11.20;99.90
66568;DHT22;53422;49.296;6.900;2022-12-31T01:03:58;11.10;99.90
66568;DHT22;53422;49.296;6.900;2022-12-31T01:06:24;11.20;99.90
66568;DHT22;53422;49.296;6.900;2022-12-31T01:08:51;11.20;99.90
66568;DHT22;53422;49.296;6.900;2022-12-31T01:11:18;11.10;99.90
66568;DHT22;53422;49.296;6.900;2022-12-31T01:16:24;11.10;99.90
66568;DHT22;53422;49.296;6.900;2022-12-31T01:18:50;11.10;99.90
66568;DHT22;53422;49.296;6.900;2022-12-31T01:21:17;11.10;99.90
66568;DHT22;53422;49.296;6.900;2022-12-31T01:23:43;11.20;99.90
66568;DHT22;53422;49.296;6.900;2022-12-31T01:26:11;11.20;99.90
66568;DHT22;53422;49.296;6.900;2022-12-31T01:28:37;11.30;99.90
66568;DHT22;53422;49.296;6.900;2022-12-31T01:31:05;11.20;99.90
66568;DHT22;53422;49.296;6.900;2022-12-31T01:33:31;11.10;99.90
66568;DHT22;53422;49.296;6.900;2022-12-31T01:36:05;11.10;99.90
66568;DHT22;53422;49.296;6.900;2022-12-31T01:38:30;11.20;99.90
66568;DHT22;53422;49.296;6.900;2022-12-31T01:40:58;11.20;99.90
66568;DHT22;53422;49.296;6.900;2022-12-31T01:43:42;11.10;99.90
66568;DHT22;53422;49.296;6.900;2022-12-31T01:46:09;11.20;99.90
66568;DHT22;53422;49.296;6.900;2022-12-31T01:48:37;11.10;99.90
66568;DHT22;53422;49.296;6.900;2022-12-31T01:51:04;11.10;99.90
66568;DHT22;53422;49.296;6.900;2022-12-31T01:53:32;11.20;99.90
66568;DHT22;53422;49.296;6.900;2022-12-31T01:55:58;11.20;99.90
66568;DHT22;53422;49.296;6.900;2022-12-31T01:58:36;11.10;99.90
66568;DHT22;53422;49.296;6.900;2022-12-31T02:01:02;11.10;99.90
66568;DHT22;53422;49.296;6.900;2022-12-31T02:03:29;11.10;99.90
66568;DHT22;53422;49.296;6.900;2022-12-31T02:06:19;11.20;99.90
66568;DHT22;53422;49.296;6.900;2022-12-31T02:08:45;11.20;99.90
66568;DHT22;53422;49.296;6.900;2022-12-31T02:11:38;11.20;99.90
66568;DHT22;53422;49.296;6.900;2022-12-31T02:14:08;11.20;99.90
66568;DHT22;53422;49.296;6.900;2022-12-31T02:16:50;11.20;99.90
66568;DHT22;53422;49.296;6.900;2022-12-31T02:19:30;11.10;99.90
66568;DHT22;53422;49.296;6.900;2022-12-31T02:30:26;11.20;99.90
66568;DHT22;53422;49.296;6.900;2022-12-31T02:33:08;11.20;99.90
66568;DHT22;53422;49.296;6.900;2022-12-31T02:35:52;11.20;99.90
66568;DHT22;53422;49.296;6.900;2022-12-31T02:38:31;11.20;99.90
66568;DHT22;53422;49.296;6.900;2022-12-31T02:40:58;11.20;99.90
66568;DHT22;53422;49.296;6.900;2022-12-31T02:43:24;11.20;99.90
66568;DHT22;53422;49.296;6.900;2022-12-31T02:46:01;11.20;99.90
66568;DHT22;53422;49.296;6.900;2022-12-31T02:48:50;11.20;99.90
66568;DHT22;53422;49.296;6.900;2022-12-31T02:51:50;11.30;99.90
66568;DHT22;53422;49.296;6.900;2022-12-31T02:54:33;11.20;99.90
66568;DHT22;53422;49.296;6.900;2022-12-31T02:57:12;11.30;99.90
66568;DHT22;53422;49.296;6.900;2022-12-31T02:59:54;11.20;99.90
66568;DHT22;53422;49.296;6.900;2022-12-31T03:02:42;11.20;99.90
66568;DHT22;53422;49.296;6.900;2022-12-31T03:05:11;11.20;99.90
66568;DHT22;53422;49.296;6.900;2022-12-31T03:07:39;11.30;99.90
66568;DHT22;53422;49.296;6.900;2022-12-31T03:10:05;11.30;99.90
66568;DHT22;53422;49.296;6.900;2022-12-31T03:12:32;11.20;99.90
66568;DHT22;53422;49.296;6.900;2022-12-31T03:17:51;11.30;99.90
66568;DHT22;53422;49.296;6.900;2022-12-31T03:20:18;11.40;99.90
66568;DHT22;53422;49.296;6.900;2022-12-31T03:23:10;11.30;99.90
66568;DHT22;53422;49.296;6.900;2022-12-31T03:25:36;11.20;99.90
66568;DHT22;53422;49.296;6.900;2022-12-31T03:28:08;11.30;99.90
66568;DHT22;53422;49.296;6.900;2022-12-31T03:30:36;11.40;99.90
66568;DHT22;53422;49.296;6.900;2022-12-31T03:33:03;11.30;99.90
66568;DHT22;53422;49.296;6.900;2022-12-31T03:35:31;11.30;99.90
66568;DHT22;53422;49.296;6.900;2022-12-31T03:37:57;11.40;99.90
66568;DHT22;53422;49.296;6.900;2022-12-31T03:40:25;11.40;99.90
66568;DHT22;53422;49.296;6.900;2022-12-31T03:42:51;11.40;99.90
66568;DHT22;53422;49.296;6.900;2022-12-31T03:45:18;11.50;99.90
66568;DHT22;53422;49.296;6.900;2022-12-31T03:47:44;11.50;99.90
66568;DHT22;53422;49.296;6.900;2022-12-31T03:50:11;11.40;99.90
66568;DHT22;53422;49.296;6.900;2022-12-31T03:52:37;11.50;99.90
66568;DHT22;53422;49.296;6.900;2022-12-31T03:55:04;11.50;99.90
66568;DHT22;53422;49.296;6.900;2022-12-31T03:57:30;11.50;99.90
66568;DHT22;53422;49.296;6.900;2022-12-31T03:59:55;11.40;99.90
66568;DHT22;53422;49.296;6.900;2022-12-31T04:02:21;11.40;99.90
66568;DHT22;53422;49.296;6.900;2022-12-31T04:04:47;11.50;99.90
66568;DHT22;53422;49.296;6.900;2022-12-31T04:07:12;11.60;99.90
66568;DHT22;53422;49.296;6.900;2022-12-31T04:09:38;11.50;99.90
66568;DHT22;53422;49.296;6.900;2022-12-31T04:12:04;11.50;99.90
66568;DHT22;53422;49.296;6.900;2022-12-31T04:14:29;11.50;99.90
66568;DHT22;53422;49.296;6.900;2022-12-31T04:16:55;11.60;99.90
66568;DHT22;53422;49.296;6.900;2022-12-31T04:19:21;11.50;99.90
66568;DHT22;53422;49.296;6.900;2022-12-31T04:21:46;11.60;99.90
66568;DHT22;53422;49.296;6.900;2022-12-31T04:24:12;11.70;99.90
66568;DHT22;53422;49.296;6.900;2022-12-31T04:26:38;11.70;99.90
66568;DHT22;53422;49.296;6.900;2022-12-31T04:29:03;11.80;99.90
66568;DHT22;53422;49.296;6.900;2022-12-31T04:31:29;11.70;99.90
66568;DHT22;53422;49.296;6.900;2022-12-31T04:33:55;11.70;99.90
66568;DHT22;53422;49.296;6.900;2022-12-31T04:36:21;11.80;99.90
66568;DHT22;53422;49.296;6.900;2022-12-31T04:38:46;11.80;99.90
66568;DHT22;53422;49.296;6.900;2022-12-31T04:41:12;11.90;99.90
66568;DHT22;53422;49.296;6.900;2022-12-31T04:43:50;11.90;99.90
66568;DHT22;53422;49.296;6.900;2022-12-31T04:46:18;11.80;99.90
66568;DHT22;53422;49.296;6.900;2022-12-31T04:48:44;11.80;99.90
66568;DHT22;53422;49.296;6.900;2022-12-31T04:51:10;11.80;99.90
66568;DHT22;53422;49.296;6.900;2022-12-31T04:53:36;11.80;99.90
66568;DHT22;53422;49.296;6.900;2022-12-31T04:56:03;11.80;99.90
66568;DHT22;53422;49.296;6.900;2022-12-31T04:58:29;11.70;99.90
66568;DHT22;53422;49.296;6.900;2022-12-31T05:00:55;11.70;99.90
66568;DHT22;53422;49.296;6.900;2022-12-31T05:03:22;11.80;99.90
66568;DHT22;53422;49.296;6.900;2022-12-31T05:05:48;11.70;99.90
66568;DHT22;53422;49.296;6.900;2022-12-31T05:08:16;11.80;99.90
66568;DHT22;53422;49.296;6.900;2022-12-31T05:10:43;11.80;99.90
66568;DHT22;53422;49.296;6.900;2022-12-31T05:13:09;11.90;99.90
66568;DHT22;53422;49.296;6.900;2022-12-31T05:15:35;11.90;99.90
66568;DHT22;53422;49.296;6.900;2022-12-31T05:18:01;11.90;99.90
66568;DHT22;53422;49.296;6.900;2022-12-31T05:20:27;12.00;99.90
66568;DHT22;53422;49.296;6.900;2022-12-31T05:22:53;12.00;99.90
66568;DHT22;53422;49.296;6.900;2022-12-31T05:25:18;12.00;99.90
66568;DHT22;53422;49.296;6.900;2022-12-31T05:27:44;11.90;99.90
66568;DHT22;53422;49.296;6.900;2022-12-31T05:30:10;11.90;99.90
66568;DHT22;53422;49.296;6.900;2022-12-31T05:32:36;12.00;99.90
66568;DHT22;53422;49.296;6.900;2022-12-31T05:35:02;12.00;99.90
66568;DHT22;53422;49.296;6.900;2022-12-31T05:37:29;11.90;99.90
66568;DHT22;53422;49.296;6.900;2022-12-31T05:39:55;11.90;99.90
66568;DHT22;53422;49.296;6.900;2022-12-31T05:42:21;12.00;99.90
66568;DHT22;53422;49.296;6.900;2022-12-31T05:44:47;11.90;99.90
66568;DHT22;53422;49.296;6.900;2022-12-31T05:47:13;11.90;99.90
66568;DHT22;53422;49.296;6.900;2022-12-31T05:49:39;11.80;99.90
66568;DHT22;53422;49.296;6.900;2022-12-31T05:52:05;11.80;99.90
66568;DHT22;53422;49.296;6.900;2022-12-31T05:54:31;11.80;99.90
66568;DHT22;53422;49.296;6.900;2022-12-31T05:56:57;11.80;99.90
66568;DHT22;53422;49.296;6.900;2022-12-31T05:59:23;11.90;99.90
66568;DHT22;53422;49.296;6.900;2022-12-31T06:01:50;11.90;99.90
66568;DHT22;53422;49.296;6.900;2022-12-31T06:04:16;11.90;99.90
66568;DHT22;53422;49.296;6.900;2022-12-31T06:06:41;11.90;99.90
66568;DHT22;53422;49.296;6.900;2022-12-31T06:09:07;12.00;99.90
66568;DHT22;53422;49.296;6.900;2022-12-31T06:11:32;12.00;99.90
66568;DHT22;53422;49.296;6.900;2022-12-31T06:13:58;12.00;99.90
66568;DHT22;53422;49.296;6.900;2022-12-31T06:16:25;11.90;99.90
66568;DHT22;53422;49.296;6.900;2022-12-31T06:18:51;11.90;99.90
66568;DHT22;53422;49.296;6.900;2022-12-31T06:21:17;11.90;99.90
66568;DHT22;53422;49.296;6.900;2022-12-31T06:23:44;11.90;99.90
66568;DHT22;53422;49.296;6.900;2022-12-31T06:26:10;12.00;99.90
66568;DHT22;53422;49.296;6.900;2022-12-31T06:28:35;11.90;99.90
66568;DHT22;53422;49.296;6.900;2022-12-31T06:31:03;12.00;99.90
66568;DHT22;53422;49.296;6.900;2022-12-31T06:33:29;11.90;99.90
66568;DHT22;53422;49.296;6.900;2022-12-31T06:35:56;11.90;99.90
66568;DHT22;53422;49.296;6.900;2022-12-31T06:38:23;11.90;99.90
66568;DHT22;53422;49.296;6.900;2022-12-31T06:40:49;11.90;99.90
66568;DHT22;53422;49.296;6.900;2022-12-31T06:43:14;11.90;99.90
66568;DHT22;53422;49.296;6.900;2022-12-31T06:45:40;11.90;99.90
66568;DHT22;53422;49.296;6.900;2022-12-31T06:48:06;11.80;99.90
66568;DHT22;53422;49.296;6.900;2022-12-31T06:50:31;11.80;99.90
66568;DHT22;53422;49.296;6.900;2022-12-31T06:52:57;11.80;99.90
66568;DHT22;53422;49.296;6.900;2022-12-31T06:55:23;11.80;99.90
66568;DHT22;53422;49.296;6.900;2022-12-31T06:57:48;11.80;99.90
66568;DHT22;53422;49.296;6.900;2022-12-31T07:00:15;11.80;99.90
66568;DHT22;53422;49.296;6.900;2022-12-31T07:08:51;11.80;99.90
66568;DHT22;53422;49.296;6.900;2022-12-31T07:11:38;11.80;99.90
66568;DHT22;53422;49.296;6.900;2022-12-31T07:14:22;11.90;99.90
66568;DHT22;53422;49.296;6.900;2022-12-31T07:20:11;11.80;99.90
66568;DHT22;53422;49.296;6.900;2022-12-31T07:22:16;11.80;99.90
66568;DHT22;53422;49.296;6.900;2022-12-31T07:24:43;11.80;99.90
66568;DHT22;53422;49.296;6.900;2022-12-31T07:29:54;11.80;99.90
66568;DHT22;53422;49.296;6.900;2022-12-31T07:35:27;11.80;99.90
66568;DHT22;53422;49.296;6.900;2022-12-31T07:40:55;11.80;99.90
66568;DHT22;53422;49.296;6.900;2022-12-31T07:46:21;11.80;99.90
66568;DHT22;53422;49.296;6.900;2022-12-31T07:48:50;11.80;99.90
66568;DHT22;53422;49.296;6.900;2022-12-31T07:51:16;11.80;99.90
66568;DHT22;53422;49.296;6.900;2022-12-31T07:53:42;11.80;99.90
66568;DHT22;53422;49.296;6.900;2022-12-31T07:56:08;11.70;99.90
66568;DHT22;53422;49.296;6.900;2022-12-31T07:58:54;11.70;99.90
66568;DHT22;53422;49.296;6.900;2022-12-31T08:06:49;11.60;99.90
66568;DHT22;53422;49.296;6.900;2022-12-31T08:12:03;11.80;99.90
66568;DHT22;53422;49.296;6.900;2022-12-31T08:14:29;11.80;99.90
66568;DHT22;53422;49.296;6.900;2022-12-31T08:16:56;11.80;99.90
66568;DHT22;53422;49.296;6.900;2022-12-31T08:19:30;11.90;99.90
66568;DHT22;53422;49.296;6.900;2022-12-31T08:24:36;11.70;99.90
66568;DHT22;53422;49.296;6.900;2022-12-31T08:35:21;11.70;99.90
66568;DHT22;53422;49.296;6.900;2022-12-31T08:45:57;11.80;99.90
66568;DHT22;53422;49.296;6.900;2022-12-31T08:48:42;11.80;99.90
66568;DHT22;53422;49.296;6.900;2022-12-31T08:51:17;11.90;99.90
66568;DHT22;53422;49.296;6.900;2022-12-31T08:53:43;11.80;99.90
66568;DHT22;53422;49.296;6.900;2022-12-31T08:56:52;11.70;99.90
66568;DHT22;53422;49.296;6.900;2022-12-31T08:59:40;11.70;99.90
66568;DHT22;53422;49.296;6.900;2022-12-31T09:07:26;11.60;99.90
66568;DHT22;53422;49.296;6.900;2022-12-31T09:12:44;11.70;99.90
66568;DHT22;53422;49.296;6.900;2022-12-31T09:15:40;11.90;99.90
66568;DHT22;53422;49.296;6.900;2022-12-31T09:18:08;11.90;99.90
66568;DHT22;53422;49.296;6.900;2022-12-31T09:20:34;11.90;99.90
66568;DHT22;53422;49.296;6.900;2022-12-31T09:23:01;11.90;99.90
66568;DHT22;53422;49.296;6.900;2022-12-31T09:25:28;11.90;99.90
66568;DHT22;53422;49.296;6.900;2022-12-31T09:30:53;11.90;99.90
66568;DHT22;53422;49.296;6.900;2022-12-31T09:33:41;11.70;99.90
66568;DHT22;53422;49.296;6.900;2022-12-31T09:36:28;11.90;99.90
66568;DHT22;53422;49.296;6.900;2022-12-31T09:39:09;11.90;99.90
66568;DHT22;53422;49.296;6.900;2022-12-31T09:58:44;12.00;99.90
66568;DHT22;53422;49.296;6.900;2022-12-31T10:01:30;12.00;99.90
66568;DHT22;53422;49.296;6.900;2022-12-31T10:12:04;12.00;99.90
66568;DHT22;53422;49.296;6.900;2022-12-31T10:17:10;12.00;99.90
66568;DHT22;53422;49.296;6.900;2022-12-31T10:20:14;12.10;99.90
66568;DHT22;53422;49.296;6.900;2022-12-31T10:30:33;11.90;99.90
66568;DHT22;53422;49.296;6.900;2022-12-31T10:33:14;12.00;99.90
66568;DHT22;53422;49.296;6.900;2022-12-31T10:35:53;12.00;99.90
66568;DHT22;53422;49.296;6.900;2022-12-31T10:41:32;12.20;99.90
66568;DHT22;53422;49.296;6.900;2022-12-31T10:58:28;12.30;99.90
66568;DHT22;53422;49.296;6.900;2022-12-31T11:01:17;12.40;99.90
66568;DHT22;53422;49.296;6.900;2022-12-31T11:15:54;12.80;99.90
66568;DHT22;53422;49.296;6.900;2022-12-31T11:23:25;12.80;99.90
66568;DHT22;53422;49.296;6.900;2022-12-31T11:26:20;12.60;99.90
66568;DHT22;53422;49.296;6.900;2022-12-31T11:31:37;12.50;99.90
66568;DHT22;53422;49.296;6.900;2022-12-31T11:47:55;13.00;99.90
66568;DHT22;53422;49.296;6.900;2022-12-31T11:56:21;13.10;99.90
66568;DHT22;53422;49.296;6.900;2022-12-31T11:58:51;13.10;99.90
66568;DHT22;53422;49.296;6.900;2022-12-31T12:03:57;12.90;99.90
66568;DHT22;53422;49.296;6.900;2022-12-31T12:06:27;13.00;99.90
66568;DHT22;53422;49.296;6.900;2022-12-31T12:08:58;13.00;99.90
66568;DHT22;53422;49.296;6.900;2022-12-31T12:11:26;13.10;99.90
66568;DHT22;53422;49.296;6.900;2022-12-31T12:13:53;13.20;99.90
66568;DHT22;53422;49.296;6.900;2022-12-31T12:16:20;13.20;99.90
66568;DHT22;53422;49.296;6.900;2022-12-31T12:19:00;13.10;99.90
66568;DHT22;53422;49.296;6.900;2022-12-31T12:21:27;13.00;99.90
66568;DHT22;53422;49.296;6.900;2022-12-31T12:23:59;13.10;99.90
66568;DHT22;53422;49.296;6.900;2022-12-31T12:26:37;13.20;99.90
66568;DHT22;53422;49.296;6.900;2022-12-31T12:32:17;13.30;99.90
66568;DHT22;53422;49.296;6.900;2022-12-31T12:34:43;13.20;99.90
66568;DHT22;53422;49.296;6.900;2022-12-31T12:37:24;13.10;99.90
66568;DHT22;53422;49.296;6.900;2022-12-31T12:40:03;13.10;99.90
66568;DHT22;53422;49.296;6.900;2022-12-31T12:42:29;13.20;99.90
66568;DHT22;53422;49.296;6.900;2022-12-31T12:45:12;13.10;99.90
66568;DHT22;53422;49.296;6.900;2022-12-31T12:47:41;13.00;99.90
66568;DHT22;53422;49.296;6.900;2022-12-31T12:50:17;13.20;99.90
66568;DHT22;53422;49.296;6.900;2022-12-31T12:58:36;13.00;99.90
66568;DHT22;53422;49.296;6.900;2022-12-31T13:14:57;13.20;99.90
66568;DHT22;53422;49.296;6.900;2022-12-31T13:23:16;13.10;99.90
66568;DHT22;53422;49.296;6.900;2022-12-31T13:28:31;13.20;99.90
66568;DHT22;53422;49.296;6.900;2022-12-31T13:31:06;13.20;99.90
66568;DHT22;53422;49.296;6.900;2022-12-31T13:33:37;13.30;99.90
66568;DHT22;53422;49.296;6.900;2022-12-31T13:36:21;13.30;99.90
66568;DHT22;53422;49.296;6.900;2022-12-31T13:38:50;13.30;99.90
66568;DHT22;53422;49.296;6.900;2022-12-31T13:49:18;13.00;99.90
66568;DHT22;53422;49.296;6.900;2022-12-31T13:51:48;13.10;99.90
66568;DHT22;53422;49.296;6.900;2022-12-31T13:56:41;13.00;99.90
66568;DHT22;53422;49.296;6.900;2022-12-31T13:59:19;13.10;99.90
66568;DHT22;53422;49.296;6.900;2022-12-31T14:02:07;13.20;99.90
66568;DHT22;53422;49.296;6.900;2022-12-31T14:04:52;13.50;99.90
66568;DHT22;53422;49.296;6.900;2022-12-31T14:07:25;13.70;99.90
66568;DHT22;53422;49.296;6.900;2022-12-31T14:09:53;13.70;99.90
66568;DHT22;53422;49.296;6.900;2022-12-31T14:12:34;13.70;99.90
66568;DHT22;53422;49.296;6.900;2022-12-31T14:15:46;13.70;99.90
66568;DHT22;53422;49.296;6.900;2022-12-31T14:21:01;13.60;99.90
66568;DHT22;53422;49.296;6.900;2022-12-31T14:23:39;13.60;99.90
66568;DHT22;53422;49.296;6.900;2022-12-31T14:26:19;13.50;99.90
66568;DHT22;53422;49.296;6.900;2022-12-31T14:28:59;13.50;99.90
66568;DHT22;53422;49.296;6.900;2022-12-31T14:37:54;13.50;99.90
66568;DHT22;53422;49.296;6.900;2022-12-31T14:43:34;13.40;99.90
66568;DHT22;53422;49.296;6.900;2022-12-31T14:49:19;13.50;99.90
66568;DHT22;53422;49.296;6.900;2022-12-31T14:51:47;13.40;99.90
66568;DHT22;53422;49.296;6.900;2022-12-31T14:54:36;13.50;99.90
66568;DHT22;53422;49.296;6.900;2022-12-31T14:57:22;13.50;99.90
66568;DHT22;53422;49.296;6.900;2022-12-31T14:59:58;13.60;99.90
66568;DHT22;53422;49.296;6.900;2022-12-31T15:02:28;13.40;99.90
66568;DHT22;53422;49.296;6.900;2022-12-31T15:07:38;13.40;99.90
66568;DHT22;53422;49.296;6.900;2022-12-31T15:12:44;13.40;99.90
66568;DHT22;53422;49.296;6.900;2022-12-31T15:22:52;13.30;99.90
66568;DHT22;53422;49.296;6.900;2022-12-31T15:25:20;13.30;99.90
66568;DHT22;53422;49.296;6.900;2022-12-31T15:27:46;13.20;99.90
66568;DHT22;53422;49.296;6.900;2022-12-31T15:32:56;13.30;99.90
66568;DHT22;53422;49.296;6.900;2022-12-31T15:35:26;13.20;99.90
66568;DHT22;53422;49.296;6.900;2022-12-31T15:38:02;13.10;99.90
66568;DHT22;53422;49.296;6.900;2022-12-31T15:40:28;13.20;99.90
66568;DHT22;53422;49.296;6.900;2022-12-31T15:43:01;13.30;99.90
66568;DHT22;53422;49.296;6.900;2022-12-31T15:45:38;13.40;99.90
66568;DHT22;53422;49.296;6.900;2022-12-31T15:48:15;13.30;99.90
66568;DHT22;53422;49.296;6.900;2022-12-31T15:50:43;13.30;99.90
66568;DHT22;53422;49.296;6.900;2022-12-31T15:53:31;13.30;99.90
66568;DHT22;53422;49.296;6.900;2022-12-31T15:55:58;13.30;99.90
66568;DHT22;53422;49.296;6.900;2022-12-31T15:58:35;13.20;99.90
66568;DHT22;53422;49.296;6.900;2022-12-31T16:01:14;13.30;99.90
66568;DHT22;53422;49.296;6.900;2022-12-31T16:03:45;13.20;99.90
66568;DHT22;53422;49.296;6.900;2022-12-31T16:06:14;12.90;99.90
66568;DHT22;53422;49.296;6.900;2022-12-31T16:08:42;12.70;99.90
66568;DHT22;53422;49.296;6.900;2022-12-31T16:11:09;12.60;99.90
66568;DHT22;53422;49.296;6.900;2022-12-31T16:13:43;12.50;99.90
66568;DHT22;53422;49.296;6.900;2022-12-31T16:16:20;12.50;99.90
66568;DHT22;53422;49.296;6.900;2022-12-31T16:18:46;12.40;99.90
66568;DHT22;53422;49.296;6.900;2022-12-31T16:21:33;12.50;99.90
66568;DHT22;53422;49.296;6.900;2022-12-31T16:26:53;12.30;99.90
66568;DHT22;53422;49.296;6.900;2022-12-31T16:29:21;12.30;99.90
66568;DHT22;53422;49.296;6.900;2022-12-31T16:31:49;12.20;99.90
66568;DHT22;53422;49.296;6.900;2022-12-31T16:34:17;12.30;99.90
66568;DHT22;53422;49.296;6.900;2022-12-31T16:36:59;12.20;99.90
66568;DHT22;53422;49.296;6.900;2022-12-31T16:39:36;12.10;99.90
66568;DHT22;53422;49.296;6.900;2022-12-31T16:42:20;12.20;99.90
66568;DHT22;53422;49.296;6.900;2022-12-31T16:44:47;12.10;99.90
66568;DHT22;53422;49.296;6.900;2022-12-31T16:47:20;12.20;99.90
66568;DHT22;53422;49.296;6.900;2022-12-31T16:49:59;12.20;99.90
66568;DHT22;53422;49.296;6.900;2022-12-31T16:52:39;12.10;99.90
66568;DHT22;53422;49.296;6.900;2022-12-31T16:55:14;12.20;99.90
66568;DHT22;53422;49.296;6.900;2022-12-31T16:57:43;12.10;99.90
66568;DHT22;53422;49.296;6.900;2022-12-31T17:00:15;12.20;99.90
66568;DHT22;53422;49.296;6.900;2022-12-31T17:02:45;12.30;99.90
66568;DHT22;53422;49.296;6.900;2022-12-31T17:05:19;12.10;99.90
66568;DHT22;53422;49.296;6.900;2022-12-31T17:07:45;12.00;99.90
66568;DHT22;53422;49.296;6.900;2022-12-31T17:10:15;12.10;99.90
66568;DHT22;53422;49.296;6.900;2022-12-31T17:13:08;12.10;99.90
66568;DHT22;53422;49.296;6.900;2022-12-31T17:15:41;12.10;99.90
66568;DHT22;53422;49.296;6.900;2022-12-31T17:18:09;12.10;99.90
66568;DHT22;53422;49.296;6.900;2022-12-31T17:20:39;12.10;99.90
66568;DHT22;53422;49.296;6.900;2022-12-31T17:23:06;12.10;99.90
66568;DHT22;53422;49.296;6.900;2022-12-31T17:25:35;12.10;99.90
66568;DHT22;53422;49.296;6.900;2022-12-31T17:32:59;11.90;99.90
66568;DHT22;53422;49.296;6.900;2022-12-31T17:35:36;12.10;99.90
66568;DHT22;53422;49.296;6.900;2022-12-31T17:40:52;12.00;99.90
66568;DHT22;53422;49.296;6.900;2022-12-31T17:43:20;12.00;99.90
66568;DHT22;53422;49.296;6.900;2022-12-31T17:45:49;12.10;99.90
66568;DHT22;53422;49.296;6.900;2022-12-31T17:48:17;12.10;99.90
66568;DHT22;53422;49.296;6.900;2022-12-31T17:50:48;12.00;99.90
66568;DHT22;53422;49.296;6.900;2022-12-31T17:53:14;12.00;99.90
66568;DHT22;53422;49.296;6.900;2022-12-31T17:55:41;12.20;99.90
66568;DHT22;53422;49.296;6.900;2022-12-31T17:58:16;12.10;99.90
66568;DHT22;53422;49.296;6.900;2022-12-31T18:00:42;12.00;99.90
66568;DHT22;53422;49.296;6.900;2022-12-31T18:03:08;12.00;99.90
66568;DHT22;53422;49.296;6.900;2022-12-31T18:05:34;12.10;99.90
66568;DHT22;53422;49.296;6.900;2022-12-31T18:07:59;12.00;99.90
66568;DHT22;53422;49.296;6.900;2022-12-31T18:10:26;12.10;99.90
66568;DHT22;53422;49.296;6.900;2022-12-31T18:12:54;12.10;99.90
66568;DHT22;53422;49.296;6.900;2022-12-31T18:15:22;12.00;99.90
66568;DHT22;53422;49.296;6.900;2022-12-31T18:17:48;11.90;99.90
66568;DHT22;53422;49.296;6.900;2022-12-31T18:20:14;11.90;99.90
66568;DHT22;53422;49.296;6.900;2022-12-31T18:22:41;11.90;99.90
66568;DHT22;53422;49.296;6.900;2022-12-31T18:25:15;11.80;99.90
66568;DHT22;53422;49.296;6.900;2022-12-31T18:27:42;11.90;99.90
66568;DHT22;53422;49.296;6.900;2022-12-31T18:30:11;11.90;99.90
66568;DHT22;53422;49.296;6.900;2022-12-31T18:32:38;11.90;99.90
66568;DHT22;53422;49.296;6.900;2022-12-31T18:35:10;11.90;99.90
66568;DHT22;53422;49.296;6.900;2022-12-31T18:37:38;11.90;99.90
66568;DHT22;53422;49.296;6.900;2022-12-31T18:40:04;11.90;99.90
66568;DHT22;53422;49.296;6.900;2022-12-31T18:42:29;11.90;99.90
66568;DHT22;53422;49.296;6.900;2022-12-31T18:44:55;12.00;99.90
66568;DHT22;53422;49.296;6.900;2022-12-31T18:47:21;11.90;99.90
66568;DHT22;53422;49.296;6.900;2022-12-31T18:49:48;12.00;99.90
66568;DHT22;53422;49.296;6.900;2022-12-31T18:52:15;11.90;99.90
66568;DHT22;53422;49.296;6.900;2022-12-31T18:54:41;12.00;99.90
66568;DHT22;53422;49.296;6.900;2022-12-31T18:57:11;12.00;99.90
66568;DHT22;53422;49.296;6.900;2022-12-31T18:59:37;11.90;99.90
66568;DHT22;53422;49.296;6.900;2022-12-31T19:02:03;11.90;99.90
66568;DHT22;53422;49.296;6.900;2022-12-31T19:04:29;11.90;99.90
66568;DHT22;53422;49.296;6.900;2022-12-31T19:06:55;11.90;99.90
66568;DHT22;53422;49.296;6.900;2022-12-31T19:09:21;11.90;99.90
66568;DHT22;53422;49.296;6.900;2022-12-31T19:11:47;11.90;99.90
66568;DHT22;53422;49.296;6.900;2022-12-31T19:14:16;11.90;99.90
66568;DHT22;53422;49.296;6.900;2022-12-31T19:16:44;11.90;99.90
66568;DHT22;53422;49.296;6.900;2022-12-31T19:19:10;12.00;99.90
66568;DHT22;53422;49.296;6.900;2022-12-31T19:21:36;11.90;99.90
66568;DHT22;53422;49.296;6.900;2022-12-31T19:24:01;11.90;99.90
66568;DHT22;53422;49.296;6.900;2022-12-31T19:26:27;11.80;99.90
66568;DHT22;53422;49.296;6.900;2022-12-31T19:28:54;11.70;99.90
66568;DHT22;53422;49.296;6.900;2022-12-31T19:31:20;11.80;99.90
66568;DHT22;53422;49.296;6.900;2022-12-31T19:33:45;11.80;99.90
66568;DHT22;53422;49.296;6.900;2022-12-31T19:36:16;11.80;99.90
66568;DHT22;53422;49.296;6.900;2022-12-31T19:38:42;11.80;99.90
66568;DHT22;53422;49.296;6.900;2022-12-31T19:41:17;11.80;99.90
66568;DHT22;53422;49.296;6.900;2022-12-31T19:43:43;11.80;99.90
66568;DHT22;53422;49.296;6.900;2022-12-31T19:46:13;11.70;99.90
66568;DHT22;53422;49.296;6.900;2022-12-31T19:48:39;11.70;99.90
66568;DHT22;53422;49.296;6.900;2022-12-31T19:51:10;11.80;99.90
66568;DHT22;53422;49.296;6.900;2022-12-31T19:53:36;11.90;99.90
66568;DHT22;53422;49.296;6.900;2022-12-31T19:56:03;11.80;99.90
66568;DHT22;53422;49.296;6.900;2022-12-31T19:58:28;11.80;99.90
66568;DHT22;53422;49.296;6.900;2022-12-31T20:00:56;11.70;99.90